createdAt,value
2022-10-23T00:01:47.226Z,93.20
2022-10-23T00:04:19.570Z,93.16
2022-10-23T00:06:48.803Z,93.07
2022-10-23T00:09:21.026Z,93.09
2022-10-23T00:11:50.967Z,93.15
2022-10-23T00:14:22.147Z,93.19
2022-10-23T00:16:50.664Z,93.34
2022-10-23T00:19:18.897Z,93.31
2022-10-23T00:21:46.700Z,93.36
2022-10-23T00:24:14.615Z,93.31
2022-10-23T00:26:43.080Z,93.37
2022-10-23T00:29:11.614Z,93.40
2022-10-23T00:31:39.774Z,93.40
2022-10-23T00:34:08.876Z,93.41
2022-10-23T00:36:38.150Z,93.37
2022-10-23T00:39:06.796Z,93.27
2022-10-23T00:41:34.927Z,93.17
2022-10-23T00:44:18.086Z,93.12
2022-10-23T00:46:46.366Z,93.11
2022-10-23T00:49:15.445Z,93.17
2022-10-23T00:51:53.572Z,93.14
2022-10-23T00:54:25.890Z,93.08
2022-10-23T00:56:58.915Z,92.98
2022-10-23T00:59:27.775Z,92.94
2022-10-23T01:01:58.856Z,92.85
2022-10-23T01:04:28.554Z,92.68
2022-10-23T01:07:28.715Z,92.62
2022-10-23T01:10:08.692Z,92.61
2022-10-23T01:12:42.470Z,92.50
2022-10-23T01:15:23.907Z,92.40
2022-10-23T01:18:04.402Z,92.34
2022-10-23T01:20:40.979Z,92.43
2022-10-23T01:23:30.966Z,92.35
2022-10-23T01:26:15.716Z,92.19
2022-10-23T01:29:01.897Z,92.10
2022-10-23T01:31:37.612Z,92.02
2022-10-23T01:34:14.510Z,91.78
2022-10-23T01:36:46.429Z,91.62
2022-10-23T01:39:23.770Z,91.73
2022-10-23T01:42:01.002Z,91.52
2022-10-23T01:44:36.552Z,91.56
2022-10-23T01:47:07.422Z,91.47
2022-10-23T01:49:38.195Z,91.47
2022-10-23T01:52:10.722Z,91.47
2022-10-23T01:54:43.804Z,91.52
2022-10-23T01:57:16.398Z,91.47
2022-10-23T01:59:49.906Z,91.59
2022-10-23T02:02:19.008Z,91.68
2022-10-23T02:04:57.117Z,91.88
2022-10-23T02:07:24.903Z,91.95
2022-10-23T02:09:53.219Z,91.53
2022-10-23T02:12:41.736Z,91.54
2022-10-23T02:15:28.181Z,91.47
2022-10-23T02:18:32.579Z,91.27
2022-10-23T02:21:14.205Z,91.13
2022-10-23T02:23:52.556Z,91.00
2022-10-23T02:26:39.804Z,91.21
2022-10-23T02:29:19.467Z,91.12
2022-10-23T02:31:51.506Z,91.14
2022-10-23T02:34:20.991Z,91.42
2022-10-23T02:36:51.534Z,91.39
2022-10-23T02:39:22.610Z,91.31
2022-10-23T02:42:06.836Z,91.21
2022-10-23T02:45:06.824Z,91.03
2022-10-23T02:47:53.643Z,91.28
2022-10-23T02:50:33.770Z,91.25
2022-10-23T02:53:33.375Z,90.85
2022-10-23T02:56:24.567Z,90.86
2022-10-23T02:59:10.345Z,91.08
2022-10-23T03:02:05.604Z,91.05
2022-10-23T03:04:37.988Z,91.03
2022-10-23T03:07:12.042Z,90.92
2022-10-23T03:09:40.791Z,91.00
2022-10-23T03:12:08.640Z,91.02
2022-10-23T03:14:38.968Z,90.74
2022-10-23T03:17:10.124Z,90.67
2022-10-23T03:19:41.912Z,90.49
2022-10-23T03:22:12.099Z,90.68
2022-10-23T03:24:40.257Z,91.00
2022-10-23T03:27:07.960Z,90.99
2022-10-23T03:29:36.385Z,90.71
2022-10-23T03:32:04.357Z,90.82
2022-10-23T03:34:32.201Z,91.00
2022-10-23T03:36:59.837Z,91.20
2022-10-23T03:39:29.378Z,91.38
2022-10-23T03:41:57.031Z,91.78
2022-10-23T03:44:24.739Z,91.84
2022-10-23T03:46:52.446Z,91.56
2022-10-23T03:49:20.244Z,91.51
2022-10-23T03:51:53.625Z,91.52
2022-10-23T03:54:27.263Z,91.34
2022-10-23T03:56:57.735Z,91.09
2022-10-23T03:59:30.418Z,90.86
2022-10-23T04:02:00.195Z,90.97
2022-10-23T04:04:29.540Z,91.09
2022-10-23T04:06:57.347Z,91.16
2022-10-23T04:09:25.183Z,91.04
2022-10-23T04:11:52.903Z,90.80
2022-10-23T04:14:24.213Z,90.91
2022-10-23T04:16:51.973Z,90.92
2022-10-23T04:19:19.915Z,90.86
2022-10-23T04:21:47.765Z,90.85
2022-10-23T04:24:15.553Z,90.74
2022-10-23T04:26:43.285Z,90.69
2022-10-23T04:29:10.941Z,90.60
2022-10-23T04:31:38.575Z,90.69
2022-10-23T04:36:38.798Z,90.74
2022-10-23T04:39:09.990Z,90.70
2022-10-23T04:41:40.456Z,90.69
2022-10-23T04:44:09.889Z,90.61
2022-10-23T04:46:37.778Z,90.51
2022-10-23T04:49:05.546Z,90.56
2022-10-23T04:51:34.929Z,90.47
2022-10-23T04:54:02.628Z,90.36
2022-10-23T04:56:30.324Z,90.33
2022-10-23T04:58:58.085Z,90.29
2022-10-23T05:01:25.891Z,90.25
2022-10-23T05:03:57.753Z,90.21
2022-10-23T05:06:25.505Z,90.16
2022-10-23T05:08:57.724Z,90.09
2022-10-23T05:11:25.455Z,89.98
2022-10-23T05:13:53.125Z,89.84
2022-10-23T05:16:39.510Z,89.66
2022-10-23T05:19:11.153Z,89.53
2022-10-23T05:21:41.576Z,89.43
2022-10-23T05:24:11.806Z,89.30
2022-10-23T05:26:39.549Z,89.16
2022-10-23T05:29:07.263Z,88.89
2022-10-23T05:31:36.790Z,88.75
2022-10-23T05:34:09.882Z,88.40
2022-10-23T05:36:41.755Z,88.21
2022-10-23T05:39:09.464Z,87.97
2022-10-23T05:41:37.347Z,87.85
2022-10-23T05:44:04.965Z,87.79
2022-10-23T05:46:32.685Z,87.64
2022-10-23T05:49:00.398Z,87.59
2022-10-23T05:51:29.612Z,87.52
2022-10-23T05:53:58.789Z,87.48
2022-10-23T05:56:29.222Z,87.36
2022-10-23T05:58:56.863Z,87.33
2022-10-23T06:01:26.104Z,87.32
2022-10-23T06:03:55.231Z,87.30
2022-10-23T06:06:22.870Z,87.24
2022-10-23T06:08:50.549Z,87.22
2022-10-23T06:11:20.309Z,87.21
2022-10-23T06:13:49.752Z,87.22
2022-10-23T06:16:24.657Z,87.22
2022-10-23T06:18:52.957Z,87.21
2022-10-23T06:21:20.820Z,87.17
2022-10-23T06:23:52.140Z,87.08
2022-10-23T06:26:21.417Z,87.03
2022-10-23T06:28:49.127Z,86.96
2022-10-23T06:31:20.672Z,86.87
2022-10-23T06:33:48.351Z,86.79
2022-10-23T06:36:15.970Z,86.74
2022-10-23T06:38:45.179Z,86.69
2022-10-23T06:41:18.071Z,86.62
2022-10-23T06:43:49.432Z,86.53
2022-10-23T06:46:19.300Z,86.49
2022-10-23T06:48:48.769Z,86.40
2022-10-23T06:51:18.745Z,86.33
2022-10-23T06:53:48.012Z,86.25
2022-10-23T06:56:15.725Z,86.14
2022-10-23T06:58:43.450Z,86.01
2022-10-23T07:01:14.152Z,85.84
2022-10-23T07:03:43.706Z,85.75
2022-10-23T07:06:13.084Z,85.71
2022-10-23T07:08:40.914Z,85.54
2022-10-23T07:11:11.816Z,85.51
2022-10-23T07:13:41.167Z,85.31
2022-10-23T07:16:15.563Z,85.20
2022-10-23T07:18:48.891Z,84.97
2022-10-23T07:21:18.327Z,84.75
2022-10-23T07:23:46.024Z,84.72
2022-10-23T07:26:16.877Z,84.69
2022-10-23T07:28:48.123Z,84.57
2022-10-23T07:31:15.916Z,84.63
2022-10-23T07:33:47.829Z,84.37
2022-10-23T07:36:15.618Z,84.36
2022-10-23T07:38:43.322Z,84.30
2022-10-23T07:41:13.741Z,84.32
2022-10-23T07:43:41.472Z,84.33
2022-10-23T07:46:10.236Z,84.29
2022-10-23T07:48:39.721Z,84.25
2022-10-23T07:51:14.433Z,84.14
2022-10-23T07:53:44.048Z,83.99
2022-10-23T07:56:26.297Z,83.68
2022-10-23T07:58:55.582Z,83.40
2022-10-23T08:01:38.582Z,83.22
2022-10-23T08:04:10.981Z,83.07
2022-10-23T08:06:38.713Z,82.70
2022-10-23T08:09:08.484Z,82.48
2022-10-23T08:11:37.892Z,82.13
2022-10-23T08:14:09.463Z,81.69
2022-10-23T08:16:39.519Z,81.54
2022-10-23T08:19:09.383Z,81.41
2022-10-23T08:21:38.970Z,81.35
2022-10-23T08:24:07.385Z,81.01
2022-10-23T08:26:35.043Z,80.78
2022-10-23T08:29:02.731Z,79.91
2022-10-23T08:31:32.048Z,79.63
2022-10-23T08:33:59.786Z,79.21
2022-10-23T08:36:29.941Z,79.19
2022-10-23T08:38:59.934Z,78.58
2022-10-23T08:41:43.713Z,78.78
2022-10-23T08:44:29.422Z,78.67
2022-10-23T08:47:24.859Z,79.33
2022-10-23T08:50:25.624Z,78.99
2022-10-23T08:53:09.391Z,78.31
2022-10-23T08:55:44.016Z,77.84
2022-10-23T08:58:30.898Z,77.35
2022-10-23T09:01:00.395Z,76.40
2022-10-23T09:03:29.600Z,75.94
2022-10-23T09:06:27.720Z,75.70
2022-10-23T09:09:04.569Z,73.57
2022-10-23T09:11:43.315Z,73.05
2022-10-23T09:14:36.234Z,71.02
2022-10-23T09:17:17.412Z,70.75
2022-10-23T09:19:48.002Z,71.99
2022-10-23T09:22:17.238Z,71.42
2022-10-23T09:24:44.882Z,72.50
2022-10-23T09:27:22.400Z,72.97
2022-10-23T09:29:54.017Z,73.62
2022-10-23T09:32:35.305Z,73.72
2022-10-23T09:35:05.441Z,74.00
2022-10-23T09:37:43.184Z,74.42
2022-10-23T09:40:22.798Z,74.05
2022-10-23T09:43:01.681Z,74.40
2022-10-23T09:45:35.294Z,74.89
2022-10-23T09:48:15.042Z,75.10
2022-10-23T09:51:06.373Z,75.49
2022-10-23T09:53:56.877Z,75.80
2022-10-23T09:56:36.694Z,75.92
2022-10-23T09:59:22.364Z,75.85
2022-10-23T10:01:58.431Z,75.87
2022-10-23T10:04:39.601Z,74.90
2022-10-23T10:07:23.999Z,74.94
2022-10-23T10:09:56.722Z,75.14
2022-10-23T10:12:48.508Z,74.98
2022-10-23T10:15:55.936Z,74.40
2022-10-23T10:18:43.337Z,74.23
2022-10-23T10:21:38.983Z,74.01
2022-10-23T10:24:42.861Z,74.00
2022-10-23T10:27:32.216Z,72.35
2022-10-23T10:30:21.345Z,72.36
2022-10-23T10:32:59.294Z,72.16
2022-10-23T10:35:41.257Z,72.27
2022-10-23T10:38:27.487Z,71.54
2022-10-23T10:41:37.723Z,70.52
2022-10-23T10:44:26.686Z,70.18
2022-10-23T10:47:23.708Z,70.17
2022-10-23T10:50:35.780Z,70.31
2022-10-23T10:53:26.960Z,69.78
2022-10-23T10:55:57.807Z,68.73
2022-10-23T10:58:34.360Z,68.72
2022-10-23T11:01:15.533Z,68.23
2022-10-23T11:03:54.294Z,68.27
2022-10-23T11:06:28.215Z,67.67
2022-10-23T11:09:03.985Z,68.14
2022-10-23T11:11:47.127Z,67.07
2022-10-23T11:14:22.304Z,67.43
2022-10-23T11:16:59.849Z,67.52
2022-10-23T11:19:59.876Z,67.03
2022-10-23T11:23:13.447Z,65.23
2022-10-23T11:25:48.792Z,64.22
2022-10-23T11:28:27.071Z,64.50
2022-10-23T11:31:00.273Z,63.71
2022-10-23T11:33:52.463Z,63.76
2022-10-23T11:36:41.333Z,64.55
2022-10-23T11:39:22.757Z,64.92
2022-10-23T11:41:58.286Z,64.84
2022-10-23T11:44:39.771Z,65.19
2022-10-23T11:47:41.678Z,64.94
2022-10-23T11:50:09.311Z,64.76
2022-10-23T11:53:09.411Z,64.03
2022-10-23T11:56:23.697Z,62.79
2022-10-23T11:58:56.434Z,62.81
2022-10-23T12:01:44.373Z,63.14
2022-10-23T12:04:15.301Z,63.47
2022-10-23T12:06:50.357Z,63.01
2022-10-23T12:09:26.632Z,63.44
2022-10-23T12:12:09.549Z,64.03
2022-10-23T12:14:47.856Z,63.56
2022-10-23T12:17:24.943Z,62.47
2022-10-23T12:20:24.103Z,62.57
2022-10-23T12:23:00.680Z,62.08
2022-10-23T12:25:54.595Z,61.11
2022-10-23T12:29:03.848Z,60.31
2022-10-23T12:31:48.040Z,60.54
2022-10-23T12:34:45.697Z,60.13
2022-10-23T12:37:44.280Z,60.48
2022-10-23T12:40:15.508Z,61.06
2022-10-23T12:42:53.982Z,61.19
2022-10-23T12:45:52.139Z,60.65
2022-10-23T12:48:24.697Z,59.98
2022-10-23T12:50:55.677Z,60.29
2022-10-23T12:53:24.454Z,60.34
2022-10-23T12:56:06.132Z,60.71
2022-10-23T12:58:37.454Z,60.37
2022-10-23T13:01:09.556Z,61.03
2022-10-23T13:03:41.082Z,60.59
2022-10-23T13:06:12.954Z,59.86
2022-10-23T13:08:44.477Z,59.33
2022-10-23T13:11:19.019Z,58.51
2022-10-23T13:13:51.021Z,58.72
2022-10-23T13:16:24.676Z,59.13
2022-10-23T13:18:54.567Z,59.00
2022-10-23T13:21:29.551Z,58.62
2022-10-23T13:23:57.322Z,58.97
2022-10-23T13:26:47.966Z,58.68
2022-10-23T13:29:19.376Z,59.02
2022-10-23T13:31:50.331Z,59.67
2022-10-23T13:34:28.586Z,59.71
2022-10-23T13:37:02.428Z,59.93
2022-10-23T13:39:34.576Z,60.06
2022-10-23T13:42:13.215Z,59.87
2022-10-23T13:44:42.010Z,60.13
2022-10-23T13:47:16.030Z,60.38
2022-10-23T13:49:43.789Z,60.38
2022-10-23T13:52:14.152Z,60.36
2022-10-23T13:54:43.671Z,60.10
2022-10-23T13:57:16.339Z,60.09
2022-10-23T13:59:44.326Z,59.86
2022-10-23T14:02:21.613Z,59.91
2022-10-23T14:04:51.979Z,59.88
2022-10-23T14:07:22.755Z,59.93
2022-10-23T14:09:50.697Z,60.23
2022-10-23T14:12:19.439Z,60.27
2022-10-23T14:14:52.222Z,60.43
2022-10-23T14:17:23.432Z,60.93
2022-10-23T14:19:51.170Z,62.81
2022-10-23T14:22:18.864Z,61.87
2022-10-23T14:24:46.597Z,62.15
2022-10-23T14:27:14.291Z,63.12
2022-10-23T14:29:42.147Z,63.44
2022-10-23T14:32:13.190Z,62.95
2022-10-23T14:34:50.223Z,62.99
2022-10-23T14:37:23.885Z,63.19
2022-10-23T14:39:51.705Z,63.88
2022-10-23T14:42:19.455Z,63.95
2022-10-23T14:44:50.471Z,64.31
2022-10-23T14:47:19.876Z,65.11
2022-10-23T14:49:52.292Z,65.04
2022-10-23T14:52:20.123Z,65.53
2022-10-23T14:54:47.801Z,65.75
2022-10-23T14:57:18.187Z,66.26
2022-10-23T14:59:45.910Z,66.80
2022-10-23T15:02:16.096Z,67.02
2022-10-23T15:04:43.949Z,68.54
2022-10-23T15:07:11.700Z,68.55
2022-10-23T15:09:42.261Z,68.46
2022-10-23T15:12:09.944Z,68.53
2022-10-23T15:14:37.691Z,69.34
2022-10-23T15:17:12.992Z,69.65
2022-10-23T15:19:42.674Z,69.63
2022-10-23T15:22:10.687Z,70.49
2022-10-23T15:24:38.387Z,71.88
2022-10-23T15:27:06.307Z,71.87
2022-10-23T15:29:34.021Z,71.53
2022-10-23T15:32:01.832Z,72.10
2022-10-23T15:34:33.643Z,71.86
2022-10-23T15:37:02.066Z,72.00
2022-10-23T15:39:35.983Z,72.13
2022-10-23T15:42:07.710Z,72.23
2022-10-23T15:44:35.518Z,72.35
2022-10-23T15:47:03.713Z,72.47
2022-10-23T15:49:32.165Z,72.54
2022-10-23T15:52:04.935Z,72.79
2022-10-23T15:54:33.471Z,72.97
2022-10-23T15:57:05.087Z,73.47
2022-10-23T15:59:32.959Z,73.52
2022-10-23T16:02:01.274Z,74.05
2022-10-23T16:04:31.435Z,74.02
2022-10-23T16:07:02.575Z,75.37
2022-10-23T16:09:30.279Z,75.34
2022-10-23T16:11:57.935Z,75.40
2022-10-23T16:14:25.704Z,75.88
2022-10-23T16:16:53.430Z,75.77
2022-10-23T16:19:21.161Z,76.03
2022-10-23T16:21:48.829Z,75.85
2022-10-23T16:24:16.647Z,75.85
2022-10-23T16:26:50.831Z,75.94
2022-10-23T16:29:23.017Z,75.72
2022-10-23T16:31:51.939Z,75.48
2022-10-23T16:34:23.525Z,75.11
2022-10-23T16:36:51.276Z,74.91
2022-10-23T16:39:20.522Z,74.62
2022-10-23T16:41:48.300Z,74.37
2022-10-23T16:44:16.035Z,74.40
2022-10-23T16:46:44.275Z,74.35
2022-10-23T16:49:17.328Z,74.23
2022-10-23T16:51:45.131Z,74.24
2022-10-23T16:54:17.052Z,74.19
2022-10-23T16:56:45.694Z,74.22
2022-10-23T16:59:18.364Z,74.05
2022-10-23T17:01:46.157Z,74.09
2022-10-23T17:04:15.371Z,74.10
2022-10-23T17:06:43.113Z,74.24
2022-10-23T17:09:10.816Z,74.32
2022-10-23T17:11:42.243Z,74.31
2022-10-23T17:14:21.807Z,74.40
2022-10-23T17:16:55.456Z,74.50
2022-10-23T17:19:44.706Z,74.45
2022-10-23T17:22:17.210Z,74.46
2022-10-23T17:24:47.533Z,74.54
2022-10-23T17:27:18.589Z,74.64
2022-10-23T17:29:47.279Z,74.75
2022-10-23T17:32:15.758Z,74.98
2022-10-23T17:34:43.531Z,74.95
2022-10-23T17:37:15.487Z,74.98
2022-10-23T17:39:45.558Z,75.13
2022-10-23T17:42:13.346Z,75.12
2022-10-23T17:44:41.086Z,75.12
2022-10-23T17:47:08.758Z,75.30
2022-10-23T17:49:36.501Z,75.38
2022-10-23T17:52:04.530Z,75.55
2022-10-23T17:54:32.300Z,75.59
2022-10-23T17:57:00.479Z,75.85
2022-10-23T17:59:34.470Z,76.12
2022-10-23T18:02:02.273Z,76.21
2022-10-23T18:04:30.571Z,76.61
2022-10-23T18:06:59.292Z,76.68
2022-10-23T18:09:27.039Z,76.89
2022-10-23T18:11:54.730Z,77.04
2022-10-23T18:14:29.651Z,77.18
2022-10-23T18:17:04.080Z,77.47
2022-10-23T18:19:31.726Z,77.80
2022-10-23T18:21:59.429Z,77.84
2022-10-23T18:24:27.365Z,78.15
2022-10-23T18:26:55.129Z,78.36
2022-10-23T18:29:23.077Z,78.65
2022-10-23T18:31:50.800Z,78.95
2022-10-23T18:34:23.547Z,78.86
2022-10-23T18:36:56.002Z,78.92
2022-10-23T18:39:25.940Z,79.30
2022-10-23T18:41:57.550Z,79.39
2022-10-23T18:44:29.824Z,79.42
2022-10-23T18:47:02.054Z,79.58
2022-10-23T18:49:30.315Z,79.41
2022-10-23T18:52:01.939Z,79.82
2022-10-23T18:54:29.897Z,80.01
2022-10-23T18:56:57.700Z,79.89
2022-10-23T18:59:25.403Z,79.85
2022-10-23T19:01:53.450Z,80.08
2022-10-23T19:04:22.579Z,80.24
2022-10-23T19:06:53.151Z,80.31
2022-10-23T19:09:21.657Z,80.59
2022-10-23T19:11:50.267Z,80.53
2022-10-23T19:14:18.078Z,80.60
2022-10-23T19:17:08.425Z,80.69
2022-10-23T19:19:43.971Z,80.64
2022-10-23T19:22:15.794Z,80.63
2022-10-23T19:25:15.101Z,80.79
2022-10-23T19:27:47.250Z,80.77
2022-10-23T19:30:22.798Z,80.69
2022-10-23T19:32:54.811Z,80.73
2022-10-23T19:35:25.448Z,80.95
2022-10-23T19:37:53.318Z,81.11
2022-10-23T19:40:21.172Z,81.01
2022-10-23T19:42:48.947Z,81.10
2022-10-23T19:45:16.721Z,81.39
2022-10-23T19:47:46.377Z,81.28
2022-10-23T19:50:17.754Z,81.41
2022-10-23T19:52:45.563Z,81.39
2022-10-23T19:55:13.433Z,81.35
2022-10-23T19:57:41.658Z,81.42
2022-10-23T20:00:14.813Z,81.54
2022-10-23T20:02:43.080Z,81.55
2022-10-23T20:05:15.649Z,81.58
2022-10-23T20:07:47.598Z,81.48
2022-10-23T20:10:17.269Z,81.56
2022-10-23T20:12:51.540Z,81.69
2022-10-23T20:15:25.105Z,81.92
2022-10-23T20:17:52.815Z,81.86
2022-10-23T20:20:25.157Z,81.87
2022-10-23T20:22:55.303Z,81.85
2022-10-23T20:25:31.751Z,81.80
2022-10-23T20:28:00.105Z,81.82
2022-10-23T20:30:32.678Z,81.89
2022-10-23T20:33:01.071Z,82.17
2022-10-23T20:35:28.979Z,82.31
2022-10-23T20:38:01.585Z,82.14
2022-10-23T20:40:29.586Z,82.18
2022-10-23T20:42:57.362Z,82.22
2022-10-23T20:45:25.476Z,82.12
2022-10-23T20:47:53.594Z,82.22
2022-10-23T20:50:24.589Z,82.42
2022-10-23T20:52:52.434Z,82.29
2022-10-23T20:55:20.128Z,82.13
2022-10-23T20:57:48.633Z,82.17
2022-10-23T21:00:17.795Z,82.19
2022-10-23T21:02:47.228Z,82.09
2022-10-23T21:05:17.773Z,82.33
2022-10-23T21:07:45.440Z,82.46
2022-10-23T21:10:13.249Z,82.57
2022-10-23T21:12:41.430Z,82.68
2022-10-23T21:15:10.457Z,82.75
2022-10-23T21:17:40.993Z,82.76
2022-10-23T21:20:09.161Z,82.84
2022-10-23T21:22:37.110Z,82.79
2022-10-23T21:25:06.434Z,82.89
2022-10-23T21:27:34.585Z,82.89
2022-10-23T21:30:02.392Z,82.99
2022-10-23T21:32:30.810Z,83.07
2022-10-23T21:34:58.597Z,83.22
2022-10-23T21:37:26.461Z,83.29
2022-10-23T21:39:54.253Z,83.47
2022-10-23T21:42:22.055Z,83.39
2022-10-23T21:44:49.912Z,83.31
2022-10-23T21:47:17.633Z,83.55
2022-10-23T21:49:45.489Z,83.57
2022-10-23T21:52:17.628Z,83.68
2022-10-23T21:54:55.345Z,83.73
2022-10-23T21:57:22.990Z,83.74
2022-10-23T21:59:50.719Z,83.74
2022-10-23T22:02:19.223Z,83.99
2022-10-23T22:04:47.590Z,84.33
2022-10-23T22:07:15.359Z,84.47
2022-10-23T22:09:44.835Z,84.68
2022-10-23T22:12:12.758Z,84.85
2022-10-23T22:14:40.653Z,84.68
2022-10-23T22:17:09.961Z,84.67
2022-10-23T22:19:37.637Z,84.94
2022-10-23T22:22:05.340Z,84.84
2022-10-23T22:24:33.158Z,84.94
2022-10-23T22:27:01.357Z,84.94
2022-10-23T22:29:30.449Z,85.19
2022-10-23T22:31:59.294Z,85.34
2022-10-23T22:37:18.356Z,85.92
2022-10-23T22:39:46.148Z,85.84
2022-10-23T22:42:14.577Z,85.69
2022-10-23T22:44:42.257Z,85.56
2022-10-23T22:47:10.048Z,85.64
2022-10-23T22:49:39.029Z,85.62
2022-10-23T22:52:07.627Z,85.73
2022-10-23T22:54:35.351Z,85.85
2022-10-23T22:57:03.016Z,85.83
2022-10-23T22:59:31.555Z,85.96
2022-10-23T23:01:59.401Z,86.21
2022-10-23T23:04:43.333Z,86.19
2022-10-23T23:07:12.953Z,86.08
2022-10-23T23:09:43.918Z,86.08
2022-10-23T23:12:15.215Z,86.09
2022-10-23T23:14:43.730Z,85.95
2022-10-23T23:17:12.466Z,85.96
2022-10-23T23:19:41.095Z,86.09
2022-10-23T23:22:08.846Z,86.03
2022-10-23T23:24:36.595Z,86.10
2022-10-23T23:27:04.361Z,86.00
2022-10-23T23:29:32.377Z,85.86
2022-10-23T23:32:00.978Z,85.92
2022-10-23T23:34:29.508Z,86.12
2022-10-23T23:36:57.979Z,86.22
2022-10-23T23:39:26.997Z,86.32
2022-10-23T23:41:54.741Z,86.37
2022-10-23T23:44:22.562Z,86.61
2022-10-23T23:46:50.181Z,86.82
2022-10-23T23:49:17.844Z,86.92
2022-10-23T23:51:45.557Z,87.06
2022-10-23T23:54:13.390Z,87.04
2022-10-23T23:56:43.727Z,87.16
2022-10-23T23:59:11.392Z,87.29
